Time;durP1;ratioP1;P1;durP2;ratioP2;P2;SDS_P1;SDS_P2;PMS_P1;PMS_P2;Temp;Humidity;BMP_temperature;BMP_pressure;BME280_temperature;BME280_humidity;BME280_pressure;Samples;Min_cycle;Max_cycle;Signal;HPM_P1;HPM_P2
2022/12/01 00:01:35;;;;;;;48.92;34.67;;;;;;;5.75;95.45;102569.84;5094087;28;20035;-59
2022/12/01 00:04:00;;;;;;;49.55;35.55;;;;;;;5.78;95.54;102562.72;5103858;28;20034;-59
2022/12/01 00:06:26;;;;;;;50.90;35.17;;;;;;;5.72;95.57;102560.19;5098695;28;20032;-59
2022/12/01 00:11:39;;;;;;;50.42;34.97;;;;;;;5.66;96.24;102560.28;5091491;28;20039;-59
2022/12/01 00:14:05;;;;;;;48.83;34.78;;;;;;;5.74;95.42;102568.09;5094343;28;20040;-59
2022/12/01 00:16:31;;;;;;;48.35;34.50;;;;;;;5.81;95.48;102567.09;5091713;28;20508;-59
2022/12/01 00:18:57;;;;;;;48.10;34.47;;;;;;;5.83;95.70;102557.41;5090252;28;20032;-59
2022/12/01 00:21:24;;;;;;;47.00;32.67;;;;;;;5.84;95.02;102556.47;5087942;28;20040;-59
2022/12/01 00:23:52;;;;;;;44.38;32.42;;;;;;;5.78;95.50;102554.81;5072455;28;20127;-59
2022/12/01 00:26:19;;;;;;;48.55;34.05;;;;;;;5.75;95.21;102554.88;5093940;28;20059;-59
2022/12/01 00:28:49;;;;;;;49.17;35.25;;;;;;;5.80;96.10;102563.59;5087279;28;20040;-59
2022/12/01 00:31:14;;;;;;;49.40;34.38;;;;;;;5.83;95.29;102557.41;5091943;28;20020;-60
2022/12/01 00:33:40;;;;;;;48.60;34.75;;;;;;;5.84;96.10;102556.47;5096713;28;20027;-59
2022/12/01 00:36:06;;;;;;;50.70;35.00;;;;;;;5.90;95.34;102557.25;5125872;27;20039;-59
2022/12/01 00:38:32;;;;;;;52.15;34.70;;;;;;;5.86;95.53;102550.28;5093423;28;20020;-59
2022/12/01 00:40:58;;;;;;;46.70;33.55;;;;;;;5.89;94.51;102557.28;5092406;28;20020;-60
2022/12/01 00:43:23;;;;;;;52.45;35.90;;;;;;;5.89;95.17;102558.16;5092704;28;20368;-59
2022/12/01 00:45:50;;;;;;;50.20;36.05;;;;;;;5.84;95.15;102556.47;5090977;28;20111;-59
2022/12/01 00:48:15;;;;;;;51.15;36.38;;;;;;;5.79;95.23;102550.41;5100766;28;20474;-59
2022/12/01 00:50:41;;;;;;;52.17;35.60;;;;;;;5.85;95.76;102559.13;5110162;28;20102;-59
2022/12/01 00:53:06;;;;;;;52.15;36.17;;;;;;;5.75;95.24;102544.31;5094249;28;20027;-59
2022/12/01 00:55:32;;;;;;;52.30;35.92;;;;;;;5.80;95.82;102557.44;5112684;28;20016;-59
2022/12/01 00:57:57;;;;;;;53.78;36.67;;;;;;;5.86;95.72;102559.97;5098586;28;20111;-59
2022/12/01 01:00:25;;;;;;;51.38;35.92;;;;;;;5.83;95.80;102544.19;5092011;28;20028;-59
2022/12/01 01:02:51;;;;;;;55.03;37.75;;;;;;;5.88;95.85;102558.16;5092196;28;20044;-59
2022/12/01 01:05:16;;;;;;;60.65;39.00;;;;;;;5.81;96.02;102551.25;5092227;28;20030;-59
2022/12/01 01:07:42;;;;;;;65.95;40.13;;;;;;;5.68;95.83;102553.22;5092631;28;20122;-59
2022/12/01 01:10:08;;;;;;;69.22;41.08;;;;;;;5.67;96.78;102568.16;5091902;28;20024;-59
2022/12/01 01:12:33;;;;;;;70.97;42.38;;;;;;;5.72;97.08;102568.09;5091142;28;20035;-59
2022/12/01 01:14:59;;;;;;;68.28;41.15;;;;;;;5.68;96.60;102571.69;5109418;28;20126;-59
2022/12/01 01:17:24;;;;;;;65.95;40.90;;;;;;;5.74;96.73;102570.75;5112032;28;20032;-59
2022/12/01 01:19:51;;;;;;;68.25;41.28;;;;;;;5.76;97.03;102574.22;5112290;28;20027;-59
2022/12/01 01:22:17;;;;;;;69.88;41.38;;;;;;;5.83;96.48;102576.75;5112318;28;20394;-59
2022/12/01 01:24:46;;;;;;;69.57;40.17;;;;;;;5.91;95.81;102573.97;5099587;28;20028;-59
2022/12/01 01:27:11;;;;;;;64.05;39.90;;;;;;;5.78;95.83;102562.72;5090911;28;20128;-59
2022/12/01 01:29:36;;;;;;;70.25;41.60;;;;;;;5.81;96.03;102581.16;5090595;28;20107;-59
2022/12/01 01:32:03;;;;;;;66.88;41.30;;;;;;;5.84;96.16;102578.47;5091978;28;20027;-59
2022/12/01 01:34:31;;;;;;;71.00;41.15;;;;;;;5.74;96.64;102578.66;5091473;28;20036;-59
2022/12/01 01:36:56;;;;;;;70.68;40.42;;;;;;;5.83;96.46;102589.94;5091876;28;20051;-59
2022/12/01 01:39:22;;;;;;;64.60;37.22;;;;;;;5.91;95.83;102590.72;5091376;28;20056;-59
2022/12/01 01:41:47;;;;;;;62.05;38.72;;;;;;;5.89;95.84;102583.69;5123541;28;20024;-59
2022/12/01 01:44:43;;;;;;;64.32;38.70;;;;;;;5.84;95.89;102591.69;5092305;28;20024;-59
2022/12/01 01:47:12;;;;;;;61.88;38.15;;;;;;;5.82;96.38;102595.22;5090464;28;20024;-59
2022/12/01 01:49:38;;;;;;;63.28;38.75;;;;;;;5.74;95.55;102590.09;5091766;28;20047;-59
2022/12/01 01:52:04;;;;;;;65.57;38.40;;;;;;;5.79;96.03;102593.50;5091896;28;20016;-59
2022/12/01 01:54:43;;;;;;;63.42;38.67;;;;;;;5.83;96.08;102595.22;5096094;28;20101;-59
2022/12/01 01:57:11;;;;;;;62.65;38.17;;;;;;;5.80;95.89;102590.00;5095915;28;20020;-59
2022/12/01 01:59:41;;;;;;;59.78;36.50;;;;;;;5.84;94.90;102594.31;5096305;28;20479;-59
2022/12/01 02:02:09;;;;;;;57.28;36.10;;;;;;;5.79;95.51;102598.78;5095912;28;20028;-59
2022/12/01 02:04:39;;;;;;;62.17;36.42;;;;;;;5.80;95.62;102602.31;5099562;28;20115;-59
2022/12/01 02:07:05;;;;;;;61.97;37.00;;;;;;;5.80;95.51;102599.69;5116589;28;20370;-59
2022/12/01 02:09:31;;;;;;;58.65;35.72;;;;;;;5.80;94.84;102591.75;5115600;28;20052;-59
2022/12/01 02:12:38;;;;;;;62.38;37.67;;;;;;;5.75;95.22;102588.31;5114426;28;20027;-59
2022/12/01 02:15:19;;;;;;;64.25;38.05;;;;;;;5.71;95.77;102592.78;5109826;28;20020;-59
2022/12/01 02:18:11;;;;;;;64.53;38.78;;;;;;;5.78;95.58;102596.19;5075175;28;20103;-59
2022/12/01 02:20:39;;;;;;;67.60;37.75;;;;;;;5.79;94.95;102590.88;5052100;28;20406;-59
2022/12/01 02:23:19;;;;;;;62.25;38.05;;;;;;;5.82;95.21;102595.22;5096342;28;20031;-59
2022/12/01 02:25:45;;;;;;;64.90;38.28;;;;;;;5.73;94.83;102587.44;5096433;28;20028;-59
2022/12/01 02:28:38;;;;;;;64.28;39.22;;;;;;;5.77;95.41;102595.31;5094931;28;20111;-59
2022/12/01 02:31:16;;;;;;;65.43;38.53;;;;;;;5.80;95.38;102590.00;5094154;28;20052;-59
2022/12/01 02:33:57;;;;;;;61.35;37.63;;;;;;;5.77;94.96;102590.03;5094407;28;20043;-59
2022/12/01 02:36:35;;;;;;;66.47;38.80;;;;;;;5.79;95.29;102592.63;5102666;28;20436;-60
2022/12/01 02:39:11;;;;;;;67.22;40.65;;;;;;;5.77;95.57;102597.09;5074345;28;20024;-59
2022/12/01 02:41:44;;;;;;;66.20;38.83;;;;;;;5.73;96.02;102600.66;5080931;28;20024;-59
2022/12/01 02:44:19;;;;;;;65.25;39.25;;;;;;;5.76;96.03;102595.31;5078658;28;20075;-59
2022/12/01 02:46:47;;;;;;;68.82;38.97;;;;;;;5.73;95.91;102590.09;5083064;28;20025;-59
2022/12/01 02:49:17;;;;;;;70.15;39.67;;;;;;;5.73;96.09;102590.09;5082138;28;20448;-59
2022/12/01 02:51:43;;;;;;;67.35;41.10;;;;;;;5.73;96.08;102596.25;5079374;28;20100;-59
2022/12/01 02:54:16;;;;;;;70.97;41.55;;;;;;;5.75;95.98;102593.59;5094415;28;20091;-59
2022/12/01 02:56:45;;;;;;;68.30;41.75;;;;;;;5.79;96.39;102590.00;5094150;28;20544;-60
2022/12/01 02:59:13;;;;;;;67.85;40.05;;;;;;;5.70;95.75;102586.59;5093985;28;20502;-59
2022/12/01 03:01:49;;;;;;;68.63;39.70;;;;;;;5.84;96.16;102596.97;5094726;28;20508;-60
2022/12/01 03:04:42;;;;;;;65.43;40.47;;;;;;;5.91;95.88;102595.09;5093068;28;20163;-59
2022/12/01 03:07:25;;;;;;;67.78;40.40;;;;;;;5.84;95.78;102596.09;5093059;28;20199;-59
2022/12/01 03:10:09;;;;;;;70.55;39.92;;;;;;;5.74;95.54;102600.66;5125285;27;20552;-60
2022/12/01 03:13:02;;;;;;;70.03;41.17;;;;;;;5.73;96.11;102600.66;5094118;28;20026;-59
2022/12/01 03:15:46;;;;;;;66.82;41.22;;;;;;;5.77;96.41;102597.09;5086638;28;20028;-59
2022/12/01 03:18:29;;;;;;;64.53;40.35;;;;;;;5.76;95.94;102588.28;5083015;28;20382;-59
2022/12/01 03:21:05;;;;;;;64.05;40.28;;;;;;;5.75;95.61;102598.88;5093353;28;20494;-59
2022/12/01 03:23:35;;;;;;;65.32;39.60;;;;;;;5.70;95.52;102596.28;5078221;28;20407;-59
2022/12/01 03:26:06;;;;;;;66.13;40.67;;;;;;;5.69;95.99;102592.78;5074499;28;20028;-59
2022/12/01 03:28:36;;;;;;;65.57;41.15;;;;;;;5.77;95.68;102595.31;5089268;28;20027;-59
2022/12/01 03:31:06;;;;;;;67.30;40.58;;;;;;;5.73;95.83;102593.59;5081175;28;20024;-59
2022/12/01 03:33:39;;;;;;;63.35;38.90;;;;;;;5.71;95.77;102592.78;5077596;28;20499;-58
2022/12/01 03:36:13;;;;;;;60.85;38.72;;;;;;;5.73;96.26;102590.97;5087550;28;20047;-59
2022/12/01 03:38:44;;;;;;;65.57;40.67;;;;;;;5.77;96.41;102592.69;5103560;28;20513;-59
2022/12/01 03:41:20;;;;;;;63.35;39.20;;;;;;;5.75;95.94;102591.81;5091430;28;20021;-60
2022/12/01 03:43:55;;;;;;;63.92;40.17;;;;;;;5.68;95.88;102598.09;5086669;28;20040;-59
2022/12/01 03:46:30;;;;;;;63.08;39.22;;;;;;;5.56;96.19;102579.78;5092673;28;20437;-59
2022/12/01 03:48:56;;;;;;;62.70;39.28;;;;;;;5.59;96.90;102596.47;5095010;28;20032;-59
2022/12/01 03:51:47;;;;;;;63.00;40.85;;;;;;;5.67;97.30;102591.06;5092560;28;20093;-59
2022/12/01 03:54:21;;;;;;;65.75;40.60;;;;;;;5.66;96.81;102586.69;5090924;28;20023;-60
2022/12/01 03:56:52;;;;;;;63.20;38.83;;;;;;;5.68;96.27;102593.69;5085555;28;20031;-59
2022/12/01 03:59:21;;;;;;;64.50;40.85;;;;;;;5.63;96.55;102594.66;5093460;28;20032;-59
2022/12/01 04:01:49;;;;;;;63.15;40.33;;;;;;;5.63;96.37;102590.22;5096032;28;20467;-59
2022/12/01 04:04:15;;;;;;;62.92;38.78;;;;;;;5.67;96.20;102599.84;5093026;28;20030;-59
2022/12/01 04:06:43;;;;;;;61.05;39.58;;;;;;;5.77;95.97;102600.59;5092847;28;20024;-59
2022/12/01 04:09:09;;;;;;;63.65;40.67;;;;;;;5.72;95.87;102591.88;5099943;28;20061;-59
2022/12/01 04:14:20;;;;;;;61.13;38.40;;;;;;;5.71;95.93;102600.69;5112975;28;20109;-59
2022/12/01 04:16:46;;;;;;;61.38;38.78;;;;;;;5.68;96.68;102592.81;5099850;28;20039;-59
2022/12/01 04:19:11;;;;;;;60.65;38.42;;;;;;;5.77;96.29;102603.25;5091938;28;20380;-60
2022/12/01 04:21:37;;;;;;;62.42;40.03;;;;;;;5.76;96.57;102604.13;5108876;28;20024;-59
2022/12/01 04:24:05;;;;;;;60.95;39.22;;;;;;;5.79;96.41;102601.44;5092294;28;20127;-59
2022/12/01 04:26:33;;;;;;;62.85;40.33;;;;;;;5.79;96.13;102605.84;5099548;28;20027;-59
2022/12/01 04:29:01;;;;;;;61.38;38.25;;;;;;;5.68;96.02;102588.41;5112101;28;20063;-59
2022/12/01 04:31:26;;;;;;;59.75;39.22;;;;;;;5.73;96.11;102592.72;5112219;28;20385;-60
2022/12/01 04:33:54;;;;;;;59.72;38.75;;;;;;;5.75;96.42;102599.75;5113052;28;20450;-59
2022/12/01 04:36:20;;;;;;;61.05;40.42;;;;;;;5.74;96.57;102598.00;5101476;28;20032;-59
2022/12/01 04:38:46;;;;;;;58.92;39.53;;;;;;;5.79;95.90;102597.91;5092239;28;20077;-59
2022/12/01 04:41:12;;;;;;;61.10;39.17;;;;;;;5.69;96.12;102594.56;5091541;28;20032;-59
2022/12/01 04:43:38;;;;;;;59.88;39.92;;;;;;;5.75;96.32;102597.09;5092747;28;20115;-59
2022/12/01 04:46:04;;;;;;;57.72;38.25;;;;;;;5.77;96.16;102605.88;5093965;28;20027;-59
2022/12/01 04:48:36;;;;;;;61.35;38.80;;;;;;;5.75;96.41;102597.09;5091710;28;20043;-59
2022/12/01 04:51:09;;;;;;;61.28;38.88;;;;;;;5.75;96.28;102598.88;5092508;28;20023;-59
2022/12/01 04:53:36;;;;;;;59.55;39.20;;;;;;;5.74;96.93;102603.28;5091788;28;20036;-59
2022/12/01 04:56:04;;;;;;;58.42;38.75;;;;;;;5.81;96.70;102604.94;5101811;28;20039;-59
2022/12/01 04:58:31;;;;;;;58.20;37.72;;;;;;;5.79;96.79;102605.84;5112385;28;20035;-59
2022/12/01 05:01:01;;;;;;;58.03;39.22;;;;;;;5.76;96.78;102590.03;5112328;28;20031;-59
2022/12/01 05:03:27;;;;;;;60.75;38.85;;;;;;;5.87;96.08;102599.56;5111171;28;20119;-60
2022/12/01 05:06:08;;;;;;;61.17;39.63;;;;;;;5.79;96.54;102600.56;5106422;28;20116;-59
2022/12/01 05:08:36;;;;;;;56.55;36.10;;;;;;;5.78;97.15;102594.41;5090551;28;20028;-59
2022/12/01 05:11:03;;;;;;;61.20;40.03;;;;;;;5.89;96.70;102607.47;5090831;28;20052;-59
2022/12/01 05:13:29;;;;;;;56.63;38.67;;;;;;;5.82;96.30;102596.09;5092063;28;20421;-59
2022/12/01 05:16:05;;;;;;;56.83;37.72;;;;;;;5.81;96.48;102596.13;5101698;28;20042;-59
2022/12/01 05:18:31;;;;;;;61.50;38.72;;;;;;;5.79;96.73;102593.50;5112490;28;20023;-59
2022/12/01 05:20:56;;;;;;;55.75;36.83;;;;;;;5.80;96.50;102587.34;5110804;28;20118;-59
2022/12/01 05:23:26;;;;;;;55.30;36.58;;;;;;;5.86;96.58;102602.22;5110628;28;20034;-59
2022/12/01 05:25:54;;;;;;;54.42;37.22;;;;;;;5.88;96.11;102600.41;5110705;28;20076;-59
2022/12/01 05:28:21;;;;;;;56.88;38.42;;;;;;;5.88;96.56;102605.69;5110156;28;20066;-59
2022/12/01 05:30:49;;;;;;;53.45;37.63;;;;;;;5.85;96.17;102606.66;5112512;28;20099;-59
2022/12/01 05:33:14;;;;;;;55.83;37.53;;;;;;;5.85;96.23;102598.72;5110744;28;20034;-59
2022/12/01 05:35:42;;;;;;;57.95;36.22;;;;;;;5.88;96.50;102606.59;5110757;28;20043;-60
2022/12/01 05:38:10;;;;;;;57.47;38.80;;;;;;;5.77;96.29;102608.53;5111629;28;20043;-59
2022/12/01 05:40:37;;;;;;;59.95;38.67;;;;;;;5.75;96.52;102604.16;5110289;28;20493;-59
2022/12/01 05:43:03;;;;;;;56.35;38.63;;;;;;;5.72;96.75;102607.72;5112344;28;20390;-59
2022/12/01 05:45:29;;;;;;;58.80;39.33;;;;;;;5.79;96.66;102605.84;5101990;28;20035;-59
2022/12/01 05:47:55;;;;;;;56.53;38.10;;;;;;;5.73;96.46;102600.66;5092788;28;20077;-59
2022/12/01 05:50:21;;;;;;;57.92;38.28;;;;;;;5.69;96.94;102599.84;5092580;28;20058;-59
2022/12/01 05:52:47;;;;;;;59.42;38.67;;;;;;;5.79;97.25;102608.47;5091927;28;20036;-59
2022/12/01 05:55:12;;;;;;;53.58;37.55;;;;;;;5.72;96.66;102593.63;5091588;28;20110;-59
2022/12/01 05:57:37;;;;;;;53.65;36.78;;;;;;;5.81;96.12;102610.22;5092195;28;20164;-59
2022/12/01 06:00:05;;;;;;;58.35;37.30;;;;;;;5.83;96.67;102618.13;5090439;28;20067;-59
2022/12/01 06:02:30;;;;;;;57.13;38.38;;;;;;;5.69;96.23;102613.91;5093953;28;20493;-60
2022/12/01 06:04:56;;;;;;;55.80;36.17;;;;;;;5.73;96.73;102606.81;5091084;28;20118;-59
2022/12/01 06:07:24;;;;;;;55.42;37.78;;;;;;;5.63;97.05;102610.47;5091653;28;20080;-59
2022/12/01 06:09:51;;;;;;;56.22;37.63;;;;;;;5.64;97.14;102621.00;5106790;28;20077;-59
2022/12/01 06:12:17;;;;;;;59.13;38.78;;;;;;;5.65;97.35;102613.97;5099676;28;20087;-59
2022/12/01 06:14:43;;;;;;;58.28;37.70;;;;;;;5.61;96.99;102615.75;5110736;28;20076;-59
2022/12/01 06:17:09;;;;;;;57.75;38.35;;;;;;;5.52;97.67;102607.09;5111973;28;20106;-59
2022/12/01 06:19:35;;;;;;;56.75;37.40;;;;;;;5.56;97.48;102614.06;5104117;28;20434;-59
2022/12/01 06:22:00;;;;;;;59.00;39.42;;;;;;;5.61;97.49;102613.13;5094798;28;20106;-59
2022/12/01 06:24:26;;;;;;;59.40;37.95;;;;;;;5.65;97.61;102613.97;5090917;28;20071;-59
2022/12/01 06:26:51;;;;;;;56.88;38.05;;;;;;;5.62;97.59;102606.09;5090366;28;20390;-59
2022/12/01 06:29:16;;;;;;;58.97;39.55;;;;;;;5.59;97.06;102608.75;5091247;28;20035;-59
2022/12/01 06:31:42;;;;;;;60.50;38.63;;;;;;;5.61;97.06;102607.84;5101229;28;20024;-60
2022/12/01 06:34:08;;;;;;;58.58;38.22;;;;;;;5.65;96.91;102619.25;5090726;28;20566;-59
2022/12/01 06:36:34;;;;;;;61.03;38.78;;;;;;;5.64;96.82;102606.94;5092930;28;20147;-59
2022/12/01 06:38:59;;;;;;;60.78;39.47;;;;;;;5.62;97.04;102617.53;5094072;28;20062;-59
2022/12/01 06:41:25;;;;;;;62.85;40.03;;;;;;;5.67;97.08;102617.44;5096138;28;20407;-59
2022/12/01 06:43:50;;;;;;;64.30;40.78;;;;;;;5.61;97.10;102613.13;5097476;28;20052;-59
2022/12/01 06:46:16;;;;;;;61.40;40.03;;;;;;;5.57;96.97;102607.94;5094852;28;20036;-59
2022/12/01 06:48:41;;;;;;;62.55;39.13;;;;;;;5.56;97.07;102606.16;5093886;28;20024;-59
2022/12/01 06:51:06;;;;;;;60.03;39.17;;;;;;;5.67;96.74;102613.03;5097092;28;20422;-59
2022/12/01 06:53:35;;;;;;;58.47;39.15;;;;;;;5.69;97.15;102619.19;5114398;28;20042;-59
2022/12/01 06:56:01;;;;;;;59.75;37.00;;;;;;;5.67;96.91;102620.09;5110649;28;20414;-59
2022/12/01 06:58:27;;;;;;;59.75;37.63;;;;;;;5.58;96.61;102630.78;5097887;28;20035;-59
2022/12/01 07:00:52;;;;;;;57.40;37.00;;;;;;;5.59;96.28;102633.41;5091173;28;20372;-59
2022/12/01 07:03:18;;;;;;;58.22;36.65;;;;;;;5.65;96.34;102641.25;5073841;28;20047;-59
2022/12/01 07:05:44;;;;;;;60.15;36.75;;;;;;;5.62;96.06;102627.22;5106577;28;20044;-60
2022/12/01 07:08:11;;;;;;;59.88;37.60;;;;;;;5.57;95.94;102629.91;5092971;28;20035;-59
2022/12/01 07:10:36;;;;;;;52.95;34.78;;;;;;;5.67;96.00;102643.84;5092539;28;20387;-59
2022/12/01 07:13:01;;;;;;;57.55;37.13;;;;;;;5.73;95.82;102653.44;5095505;28;20054;-59
2022/12/01 07:15:27;;;;;;;57.10;37.58;;;;;;;5.66;95.97;102645.63;5116534;27;20032;-59
2022/12/01 07:17:53;;;;;;;63.50;37.05;;;;;;;5.68;95.74;102645.63;5087905;28;20036;-59
2022/12/01 07:20:18;;;;;;;57.47;36.25;;;;;;;5.68;95.64;102651.75;5092870;28;20040;-59
2022/12/01 07:22:44;;;;;;;56.78;37.53;;;;;;;5.66;94.96;102653.53;5093666;28;20042;-59
2022/12/01 07:25:09;;;;;;;59.63;37.58;;;;;;;5.67;94.96;102649.13;5093098;28;20044;-59
2022/12/01 07:27:35;;;;;;;61.40;36.65;;;;;;;5.56;95.21;102645.75;5090935;28;20097;-59
2022/12/01 07:30:00;;;;;;;58.30;38.72;;;;;;;5.57;95.68;102656.31;5073600;28;20032;-59
2022/12/01 07:32:26;;;;;;;62.63;37.88;;;;;;;5.70;95.75;102665.78;5072333;28;20024;-60
2022/12/01 07:34:51;;;;;;;60.55;39.17;;;;;;;5.66;95.07;102657.94;5073312;28;20066;-59
2022/12/01 07:37:17;;;;;;;55.78;35.30;;;;;;;5.70;94.80;102660.50;5115194;27;20498;-59
2022/12/01 07:39:42;;;;;;;59.10;36.28;;;;;;;5.75;94.32;102655.19;5093069;28;20020;-59
2022/12/01 07:42:07;;;;;;;62.15;38.03;;;;;;;5.78;94.68;102657.78;5092726;28;20028;-59
2022/12/01 07:44:33;;;;;;;59.95;38.50;;;;;;;5.73;94.38;102662.25;5075617;28;20040;-59
2022/12/01 07:46:58;;;;;;;56.50;36.53;;;;;;;5.72;93.38;102659.63;5094555;28;20036;-59
2022/12/01 07:49:24;;;;;;;60.10;36.78;;;;;;;5.73;93.68;102664.88;5092280;28;20043;-59
2022/12/01 07:51:49;;;;;;;56.03;38.15;;;;;;;5.66;94.04;102668.50;5092446;28;20025;-59
2022/12/01 07:54:15;;;;;;;59.33;37.13;;;;;;;5.69;93.64;102671.09;5092761;28;20153;-59
2022/12/01 07:56:41;;;;;;;58.33;38.60;;;;;;;5.68;93.78;102667.59;5126124;27;20019;-60
2022/12/01 07:59:07;;;;;;;61.92;38.42;;;;;;;5.70;93.63;102676.34;5099990;28;20470;-59
2022/12/01 08:01:34;;;;;;;59.67;37.45;;;;;;;5.66;94.21;102674.66;5111918;28;20024;-59
2022/12/01 08:04:00;;;;;;;60.40;36.88;;;;;;;5.74;93.45;102669.28;5098816;28;20494;-59
2022/12/01 08:06:26;;;;;;;57.40;37.92;;;;;;;5.75;93.90;102675.44;5093068;28;20035;-59
2022/12/01 08:08:52;;;;;;;61.20;38.10;;;;;;;5.71;93.77;102682.53;5092673;28;20107;-59
2022/12/01 08:11:22;;;;;;;56.10;37.00;;;;;;;5.73;93.95;102685.13;5093024;28;20016;-59
2022/12/01 08:13:48;;;;;;;63.95;39.00;;;;;;;5.73;93.73;102688.63;5095929;28;20073;-59
2022/12/01 08:16:17;;;;;;;63.72;39.47;;;;;;;5.81;93.68;102694.69;5092797;28;20437;-59
2022/12/01 08:18:43;;;;;;;56.72;37.33;;;;;;;5.80;93.59;102692.97;5092898;28;20024;-59
2022/12/01 08:21:13;;;;;;;56.15;37.15;;;;;;;5.77;93.52;102692.13;5093080;28;20397;-60
2022/12/01 08:23:39;;;;;;;58.05;37.67;;;;;;;5.82;93.70;102699.06;5095008;28;20039;-59
2022/12/01 08:26:08;;;;;;;61.70;39.97;;;;;;;5.86;93.48;102692.00;5113663;28;20051;-59
2022/12/01 08:28:35;;;;;;;57.88;36.67;;;;;;;5.82;93.22;102699.06;5095188;28;20032;-59
2022/12/01 08:31:28;;;;;;;57.70;36.47;;;;;;;5.86;93.47;102692.00;5112906;28;20401;-59
2022/12/01 08:33:53;;;;;;;57.38;37.70;;;;;;;5.82;92.79;102685.00;5099940;28;20036;-59
2022/12/01 08:36:20;;;;;;;56.70;36.40;;;;;;;5.84;91.53;102696.44;5099207;28;20035;-59
2022/12/01 08:38:48;;;;;;;53.88;37.20;;;;;;;5.79;90.99;102695.59;5108316;28;20016;-59
2022/12/01 08:41:14;;;;;;;60.10;37.47;;;;;;;5.86;92.65;102702.56;5093135;28;20099;-59
2022/12/01 08:43:43;;;;;;;52.03;36.90;;;;;;;5.87;92.13;102709.59;5092423;28;20060;-59
2022/12/01 08:46:10;;;;;;;58.13;38.22;;;;;;;5.87;91.49;102699.88;5092576;28;20132;-59
2022/12/01 08:48:36;;;;;;;57.10;37.67;;;;;;;5.94;91.67;102702.47;5093414;28;20064;-59
2022/12/01 08:51:07;;;;;;;51.75;36.97;;;;;;;5.96;91.51;102706.84;5092356;28;20153;-59
2022/12/01 08:53:38;;;;;;;53.80;36.25;;;;;;;5.95;92.20;102707.75;5102563;28;20024;-59
2022/12/01 08:56:23;;;;;;;58.08;39.42;;;;;;;6.01;92.41;102701.53;5111301;28;20023;-59
2022/12/01 08:58:49;;;;;;;57.47;38.13;;;;;;;5.98;92.46;102706.84;5110527;28;20082;-59
2022/12/01 09:01:16;;;;;;;59.63;40.10;;;;;;;5.97;92.69;102702.44;5111039;28;20027;-59
2022/12/01 09:03:42;;;;;;;58.92;38.33;;;;;;;6.04;92.77;102699.69;5107604;28;20024;-59
2022/12/01 09:06:19;;;;;;;58.45;39.63;;;;;;;6.03;92.09;102697.97;5092219;28;20103;-59
2022/12/01 09:08:45;;;;;;;61.42;40.08;;;;;;;5.98;91.92;102705.06;5099767;28;20046;-59
2022/12/01 09:11:17;;;;;;;59.13;38.70;;;;;;;6.02;91.81;102700.59;5112684;28;20039;-59
2022/12/01 09:13:44;;;;;;;55.58;38.13;;;;;;;6.01;91.78;102704.16;5110699;28;20478;-59
2022/12/01 09:16:15;;;;;;;56.58;37.95;;;;;;;6.05;91.33;102701.44;5112524;28;20031;-59
2022/12/01 09:18:42;;;;;;;53.72;36.50;;;;;;;6.00;91.11;102695.38;5107599;28;20495;-59
2022/12/01 09:21:20;;;;;;;54.38;36.85;;;;;;;6.07;91.41;102709.34;5092114;28;20428;-59
2022/12/01 09:23:47;;;;;;;53.50;36.70;;;;;;;6.11;90.61;102709.25;5099654;28;20070;-59
2022/12/01 09:26:17;;;;;;;54.17;36.30;;;;;;;6.12;90.56;102702.25;5091873;28;20020;-59
2022/12/01 09:28:43;;;;;;;52.65;36.00;;;;;;;6.06;90.70;102704.94;5091554;28;20530;-59
2022/12/01 09:31:11;;;;;;;56.78;37.78;;;;;;;6.11;90.87;102713.69;5091872;28;20028;-59
2022/12/01 09:33:37;;;;;;;52.63;36.08;;;;;;;6.16;90.88;102711.00;5100202;28;20378;-59
2022/12/01 09:36:04;;;;;;;53.58;37.40;;;;;;;6.22;90.51;102716.19;5109045;28;20024;-59
2022/12/01 09:38:31;;;;;;;54.00;37.55;;;;;;;6.19;89.95;102717.09;5111290;28;20102;-59
2022/12/01 09:41:00;;;;;;;52.45;37.53;;;;;;;6.25;90.38;102724.94;5098629;28;20031;-59
2022/12/01 09:43:33;;;;;;;56.70;37.73;;;;;;;6.25;90.09;102718.78;5099833;28;20030;-59
2022/12/01 09:46:08;;;;;;;55.67;37.83;;;;;;;6.22;90.23;102711.75;5111866;28;20030;-59
2022/12/01 09:48:45;;;;;;;58.30;38.65;;;;;;;6.26;90.46;102724.03;5110909;28;20478;-59
2022/12/01 09:51:20;;;;;;;53.45;38.00;;;;;;;6.22;90.37;102711.75;5110298;28;20024;-59
2022/12/01 09:53:49;;;;;;;55.25;38.83;;;;;;;6.29;90.36;102720.47;5102935;28;20024;-59
2022/12/01 09:56:21;;;;;;;55.65;38.17;;;;;;;6.32;90.59;102716.03;5091824;28;20178;-59
2022/12/01 09:58:50;;;;;;;60.15;38.42;;;;;;;6.29;88.96;102708.13;5111712;28;20055;-59
2022/12/01 10:01:19;;;;;;;56.20;38.30;;;;;;;6.42;89.49;102713.25;5111629;28;20355;-59
2022/12/01 10:03:51;;;;;;;;;;;;;;;6.55;90.04;102713.00;5112075;28;20111;-59
2022/12/01 10:06:31;;;;;;;57.25;38.13;;;;;;;6.49;89.05;102712.22;5111614;28;20421;-59
2022/12/01 10:09:09;;;;;;;58.03;39.40;;;;;;;6.48;88.95;102715.78;5092786;28;20028;-59
2022/12/01 10:11:38;;;;;;;57.17;39.45;;;;;;;6.53;87.77;102708.63;5091207;28;20024;-59
2022/12/01 10:14:09;;;;;;;54.25;38.33;;;;;;;6.49;88.42;102705.16;5093220;28;20020;-59
2022/12/01 10:16:47;;;;;;;62.75;41.70;;;;;;;6.53;88.71;102706.88;5095478;28;20019;-59
2022/12/01 10:19:22;;;;;;;59.40;39.80;;;;;;;6.51;88.32;102698.09;5110769;28;20023;-59
2022/12/01 10:21:50;;;;;;;58.10;40.13;;;;;;;6.54;88.83;102697.19;5094022;28;20018;-59
2022/12/01 10:24:33;;;;;;;55.83;38.67;;;;;;;6.59;88.54;102700.63;5093575;28;20035;-59
2022/12/01 10:27:15;;;;;;;62.15;40.20;;;;;;;6.62;88.15;102699.69;5093895;28;20027;-59
2022/12/01 10:29:54;;;;;;;61.05;39.00;;;;;;;6.66;87.22;102696.09;5096124;28;20406;-59
2022/12/01 10:32:32;;;;;;;60.58;39.67;;;;;;;6.62;87.65;102694.38;5104837;28;20030;-59
2022/12/01 10:34:58;;;;;;;60.33;39.70;;;;;;;6.60;87.76;102690.00;5104607;28;20039;-59
2022/12/01 10:37:28;;;;;;;58.88;39.38;;;;;;;6.60;86.63;102689.16;5115449;28;20027;-59
2022/12/01 10:39:57;;;;;;;59.58;40.00;;;;;;;6.58;86.79;102670.66;5114899;28;20028;-59
2022/12/01 10:42:39;;;;;;;60.08;38.70;;;;;;;6.76;86.40;102681.81;5112510;28;20023;-59
2022/12/01 10:45:12;;;;;;;58.67;38.63;;;;;;;6.77;85.76;102679.16;5095728;28;20024;-59
2022/12/01 10:47:37;;;;;;;58.03;37.25;;;;;;;6.91;84.97;102675.38;5093490;28;20020;-59
2022/12/01 10:50:06;;;;;;;58.53;40.10;;;;;;;6.91;85.04;102672.72;5093551;28;20035;-59
2022/12/01 10:52:38;;;;;;;58.47;40.05;;;;;;;6.95;83.68;102674.44;5094818;28;20031;-59
2022/12/01 10:55:22;;;;;;;57.67;38.80;;;;;;;6.90;83.35;102679.78;5127338;27;20028;-59
2022/12/01 10:57:48;;;;;;;56.47;38.75;;;;;;;6.87;84.46;102674.56;5095638;28;20420;-59
2022/12/01 11:00:41;;;;;;;58.92;39.72;;;;;;;7.07;84.61;102675.97;5094851;28;20023;-59
2022/12/01 11:03:19;;;;;;;58.85;40.08;;;;;;;7.12;84.07;102674.09;5092285;28;20046;-59
2022/12/01 11:05:51;;;;;;;54.25;37.15;;;;;;;7.11;83.78;102669.72;5098727;28;20095;-59
2022/12/01 11:08:39;;;;;;;56.40;38.53;;;;;;;7.19;84.30;102665.16;5098083;28;20024;-59
2022/12/01 11:11:23;;;;;;;61.03;39.22;;;;;;;7.19;83.61;102670.44;5094536;28;20020;-59
2022/12/01 11:13:49;;;;;;;59.55;37.67;;;;;;;7.15;83.87;102667.00;5092834;28;20024;-59
2022/12/01 11:16:36;;;;;;;57.53;36.85;;;;;;;7.21;84.29;102669.53;5094175;28;20063;-59
2022/12/01 11:19:25;;;;;;;58.85;38.60;;;;;;;7.17;84.49;102665.16;5112376;28;20020;-59
2022/12/01 11:21:53;;;;;;;54.63;36.53;;;;;;;6.99;83.88;102661.09;5114345;28;20072;-59
2022/12/01 11:24:27;;;;;;;57.40;38.05;;;;;;;6.94;85.06;102668.28;5113486;28;20132;-59
2022/12/01 11:26:55;;;;;;;57.88;37.50;;;;;;;6.93;85.58;102663.88;5112609;28;20542;-59
2022/12/01 11:29:30;;;;;;;58.05;39.30;;;;;;;6.97;85.87;102655.00;5095396;28;20429;-59
2022/12/01 11:31:57;;;;;;;57.08;38.45;;;;;;;6.94;85.67;102654.16;5093258;28;20012;-59
2022/12/01 11:34:33;;;;;;;57.42;38.70;;;;;;;6.87;86.78;102649.91;5092373;28;20531;-59